Nearby METAR Reports

 

KHVN - New Haven/Tweed, Connecticut, USA
Distance from station: S 9mi, 14km
Updated: 08/18/2018 12:53pm
Partly cloudy
Partly cloudy
 Wind from SSW
Wind: SSW 12 mph , 19 km/h, Gust: 16 mph , 26 km/h
Temperature: 81°F , 27°C
Heat Index: 87°F , 31°C
Dew Point: 75°F , 24°C
Humidity: 84%
Barometer: 29.81 inHg , 1009.5 hPa
Clouds: Partly cloudy
Visibility: 7 miles , 11 km
Cloud details: Partly cloudy 1800 ft
Partly cloudy 10000 ft
2018/08/18 16:53 KHVN 181653Z 21010G14KT 7SM SCT018 SCT100 27/24 A2981 RMK AO2 SLP093 T02720239
KMMK - Meriden, Connecticut, USA
Distance from station: N 9mi, 14km
Updated: 08/18/2018 1:27pm
Mostly cloudy
Mostly cloudy
 Wind from SSW
Wind: SSW 8 mph , 13 km/h
Temperature: 82°F , 28°C
Heat Index: 87°F , 31°C
Dew Point: 73°F , 23°C
Humidity: 74%
Barometer: 29.79 inHg , 1008.8 hPa
Clouds: Mostly cloudy
Visibility: 10 miles , 16 km
Cloud details: Partly cloudy 2200 ft
Partly cloudy 2800 ft
Mostly cloudy 10000 ft
2018/08/18 17:27 KMMK 181727Z AUTO 20007KT 150V210 10SM SCT022 SCT028 BKN100 28/23 A2979 RMK AO2 T02830228
 
KOXC - Oxford/Waterbury, Connecticut, USA
Distance from station: WNW 15mi, 24km
Updated: 08/18/2018 1:51pm
Nearby thunderstorm, Mostly cloudy
Nearby thunderstorm, Mostly cloudy
 Wind from varies
Wind: varies 6 mph , 9 km/h
Temperature: 82°F , 28°C
Heat Index: 86°F , 30°C
Dew Point: 72°F , 22°C
Humidity: 70%
Barometer: 29.81 inHg , 1009.5 hPa
Summary: Nearby Thunderstorm
Clouds: Mostly cloudy
Visibility: 10 miles , 16 km
Cloud details: Partly cloudy 2600 ft
Mostly cloudy 3300 ft
2018/08/18 17:51 KOXC 181751Z VRB05KT 10SM VCTS SCT026 BKN033 28/22 A2981 RMK AO2 TSB46 SLP100 T02830222 10283 20217 58018
KSNC - Chester, Connecticut, USA
Distance from station: E 19mi, 30km
Updated: 08/18/2018 1:35pm
Partly cloudy
Partly cloudy
 Wind from calm
Wind: Calm
Temperature: 86°F , 30°C
Heat Index: 93°F , 34°C
Dew Point: 73°F , 23°C
Humidity: 66%
Barometer: 29.81 inHg , 1009.5 hPa
Clouds: Partly cloudy
Visibility: 9 miles , 14 km
Cloud details: Few Clouds 1800 ft
Few Clouds 3300 ft
Partly cloudy 7500 ft
2018/08/18 17:35 KSNC 181735Z AUTO 00000KT 9SM FEW018 FEW033 SCT075 30/23 A2981 RMK AO2
 
KBDR - Bridgeport, Connecticut, USA
Distance from station: SW 21mi, 34km
Updated: 08/18/2018 12:52pm
Few Clouds
Few Clouds
 Wind from SW
Wind: SW 10 mph , 17 km/h
Temperature: 82°F , 28°C
Heat Index: 87°F , 31°C
Dew Point: 73°F , 23°C
Humidity: 74%
Barometer: 29.81 inHg , 1009.5 hPa
Clouds: Few Clouds
Visibility: 10 miles , 16 km
Cloud details: Few Clouds 10000 ft
2018/08/18 16:52 KBDR 181652Z 23009KT 10SM FEW100 28/23 A2981 RMK AO2 SLP093 T02830228
KHFD - Hartford/Brainard, Connecticut, USA
Distance from station: NNE 26mi, 42km
Updated: 08/18/2018 1:00pm
Mostly cloudy
Mostly cloudy
 Wind from S
Wind: S 6 mph , 9 km/h
Temperature: 81°F , 27°C
Heat Index: 86°F , 30°C
Dew Point: 73°F , 23°C
Humidity: 79%
Barometer: 29.79 inHg , 1008.8 hPa
Clouds: Mostly cloudy
Visibility: 10 miles , 16 km
Cloud details: Few Clouds 1900 ft
Mostly cloudy 10000 ft
2018/08/18 17:00 KHFD 181700Z 17005KT 10SM FEW019 BKN100 27/23 A2979 RMK AO2 T02720228
 
KDXR - Danbury, Connecticut, USA
Distance from station: W 32mi, 52km
Updated: 08/18/2018 12:53pm
Partly cloudy
Partly cloudy
 Wind from W
Wind: W 8 mph , 13 km/h
Temperature: 81°F , 27°C
Heat Index: 85°F , 29°C
Dew Point: 72°F , 22°C
Humidity: 74%
Barometer: 29.83 inHg , 1010.2 hPa
Clouds: Partly cloudy
Visibility: 10 miles , 16 km
Cloud details: Partly cloudy 1500 ft
2018/08/18 16:53 KDXR 181653Z 26007KT 10SM SCT015 27/22 A2983 RMK AO2 SLP097 T02720222 $
KBDL - Windsor Locks, Connecticut, USA
Distance from station: NNE 39mi, 62km
Updated: 08/18/2018 1:51pm
Mostly cloudy
Mostly cloudy
 Wind from SW
Wind: SW 9 mph , 15 km/h
Temperature: 84°F , 29°C
Heat Index: 89°F , 32°C
Dew Point: 72°F , 22°C
Humidity: 66%
Barometer: 29.76 inHg , 1007.8 hPa
Clouds: Mostly cloudy
Visibility: 10 miles , 16 km
Cloud details: Few Clouds 2600 ft
Partly cloudy 3700 ft
Mostly cloudy 11000 ft
Mostly cloudy 25000 ft
2018/08/18 17:51 KBDL 181751Z 22008KT 10SM FEW026 SCT037 BKN110 BKN250 29/22 A2976 RMK AO2 LTG DSNT N AND NE AND SW SLP077 CB DSNT W-N MOV NE T02890217 10294 20233 58014 $